createdAt,value
2018-08-18T00:02:20.310Z,1.07
2018-08-18T00:04:47.697Z,1.02
2018-08-18T00:07:16.532Z,1.25
2018-08-18T00:09:44.617Z,1.00
2018-08-18T00:12:17.102Z,1.30
2018-08-18T00:14:44.768Z,1.35
2018-08-18T00:17:11.821Z,1.22
2018-08-18T00:19:38.844Z,2.52
2018-08-18T00:22:06.762Z,1.37
2018-08-18T00:24:34.502Z,1.30
2018-08-18T00:27:01.568Z,1.20
2018-08-18T00:29:28.585Z,0.95
2018-08-18T00:31:55.593Z,1.42
2018-08-18T00:34:22.644Z,1.07
2018-08-18T00:36:50.985Z,1.22
2018-08-18T00:39:17.986Z,1.30
2018-08-18T00:41:45.044Z,1.10
2018-08-18T00:44:12.091Z,1.57
2018-08-18T00:46:39.115Z,1.15
2018-08-18T00:49:06.385Z,1.07
2018-08-18T00:51:37.390Z,1.30
2018-08-18T00:54:06.707Z,1.02
2018-08-18T00:56:33.762Z,1.07
2018-08-18T00:59:00.798Z,0.93
2018-08-18T01:01:27.829Z,1.52
2018-08-18T01:03:57.960Z,1.90
2018-08-18T01:06:26.257Z,1.00
2018-08-18T01:08:54.434Z,0.90
2018-08-18T01:11:21.539Z,1.37
2018-08-18T01:13:48.658Z,1.22
2018-08-18T01:16:15.538Z,1.60
2018-08-18T01:18:42.575Z,1.10
2018-08-18T01:21:09.619Z,1.65
2018-08-18T01:23:36.654Z,1.10
2018-08-18T01:26:03.760Z,1.40
2018-08-18T01:28:30.791Z,1.10
2018-08-18T01:31:06.149Z,1.27
2018-08-18T01:33:35.243Z,1.82
2018-08-18T01:36:02.375Z,0.85
2018-08-18T01:38:33.015Z,1.35
2018-08-18T01:41:13.932Z,1.37
2018-08-18T01:43:45.500Z,1.12
2018-08-18T01:46:16.031Z,0.82
2018-08-18T01:48:43.407Z,1.00
2018-08-18T01:51:13.458Z,1.25
2018-08-18T01:53:40.540Z,0.93
2018-08-18T01:56:07.622Z,1.40
2018-08-18T01:58:34.659Z,1.15
2018-08-18T02:01:01.695Z,1.72
2018-08-18T02:03:28.730Z,1.12
2018-08-18T02:05:56.359Z,0.90
2018-08-18T02:08:23.398Z,1.15
2018-08-18T02:10:50.440Z,1.60
2018-08-18T02:13:18.249Z,1.30
2018-08-18T02:15:45.313Z,1.17
2018-08-18T02:18:15.650Z,1.20
2018-08-18T02:20:42.710Z,1.10
2018-08-18T02:23:10.123Z,1.00
2018-08-18T02:25:37.173Z,1.07
2018-08-18T02:28:04.962Z,1.40
2018-08-18T02:30:31.990Z,1.52
2018-08-18T02:32:59.050Z,1.10
2018-08-18T02:35:26.187Z,1.10
2018-08-18T02:37:53.224Z,1.17
2018-08-18T02:40:20.259Z,1.15
2018-08-18T02:42:47.281Z,0.88
2018-08-18T02:45:15.089Z,1.42
2018-08-18T02:47:42.310Z,1.52
2018-08-18T02:50:10.152Z,1.40
2018-08-18T02:52:37.214Z,1.40
2018-08-18T02:55:06.128Z,1.10
2018-08-18T02:57:36.139Z,1.17
2018-08-18T03:00:05.253Z,1.50
2018-08-18T03:02:32.281Z,1.62
2018-08-18T03:04:59.379Z,1.65
2018-08-18T03:07:35.597Z,1.42
2018-08-18T03:10:05.270Z,1.30
2018-08-18T03:12:38.539Z,1.05
2018-08-18T03:15:05.657Z,1.87
2018-08-18T03:17:32.682Z,1.40
2018-08-18T03:19:59.701Z,1.50
2018-08-18T03:22:41.588Z,1.70
2018-08-18T03:25:08.872Z,1.40
2018-08-18T03:27:35.933Z,1.80
2018-08-18T03:30:02.983Z,1.62
2018-08-18T03:32:30.013Z,1.20
2018-08-18T03:34:57.082Z,1.35
2018-08-18T03:37:27.915Z,1.47
2018-08-18T03:39:55.175Z,1.50
2018-08-18T03:42:27.881Z,1.00
2018-08-18T03:44:55.512Z,2.05
2018-08-18T03:47:23.580Z,1.30
2018-08-18T03:49:51.302Z,1.45
2018-08-18T03:52:18.379Z,1.85
2018-08-18T03:54:45.396Z,1.10
2018-08-18T03:57:12.414Z,1.10
2018-08-18T03:59:39.459Z,1.30
2018-08-18T04:02:06.556Z,0.80
2018-08-18T04:04:36.560Z,1.12
2018-08-18T04:07:04.845Z,1.50
2018-08-18T04:09:33.008Z,1.22
2018-08-18T04:12:01.079Z,1.35
2018-08-18T04:14:33.717Z,1.32
2018-08-18T04:17:00.761Z,1.40
2018-08-18T04:19:27.795Z,1.00
2018-08-18T04:21:55.644Z,1.25
2018-08-18T04:24:24.821Z,1.27
2018-08-18T04:26:52.483Z,1.75
2018-08-18T04:29:19.548Z,1.25
2018-08-18T04:31:46.572Z,1.07
2018-08-18T04:34:13.615Z,1.15
2018-08-18T04:36:41.276Z,1.20
2018-08-18T04:39:11.077Z,1.55
2018-08-18T04:41:38.346Z,1.60
2018-08-18T04:44:05.708Z,1.20
2018-08-18T04:46:32.742Z,1.20
2018-08-18T04:48:59.785Z,1.35
2018-08-18T04:51:26.803Z,1.55
2018-08-18T04:53:53.928Z,1.20
2018-08-18T04:56:20.946Z,1.37
2018-08-18T04:58:47.974Z,1.80
2018-08-18T05:01:15.045Z,1.20
2018-08-18T05:03:52.133Z,1.55
2018-08-18T05:06:23.504Z,1.07
2018-08-18T05:08:50.614Z,1.52
2018-08-18T05:11:18.460Z,1.12
2018-08-18T05:13:45.486Z,1.32
2018-08-18T05:16:12.510Z,1.15
2018-08-18T05:18:39.534Z,1.57
2018-08-18T05:21:06.681Z,1.30
2018-08-18T05:23:34.423Z,1.60
2018-08-18T05:26:01.567Z,1.25
2018-08-18T05:28:29.084Z,1.22
2018-08-18T05:30:56.106Z,1.40
2018-08-18T05:33:23.137Z,0.80
2018-08-18T05:35:50.248Z,1.20
2018-08-18T05:38:17.262Z,1.30
2018-08-18T05:40:44.905Z,1.10
2018-08-18T05:43:11.936Z,1.52
2018-08-18T05:45:39.093Z,1.55
2018-08-18T05:48:06.135Z,1.85
2018-08-18T05:50:33.170Z,1.27
2018-08-18T05:53:19.956Z,1.20
2018-08-18T05:55:47.804Z,1.30
2018-08-18T05:58:15.285Z,1.35
2018-08-18T06:00:42.323Z,1.32
2018-08-18T06:03:09.426Z,1.50
2018-08-18T06:05:36.505Z,1.70
2018-08-18T06:08:03.519Z,1.45
2018-08-18T06:10:30.550Z,1.02
2018-08-18T06:12:58.701Z,1.30
2018-08-18T06:15:26.224Z,1.85
2018-08-18T06:17:53.251Z,1.75
2018-08-18T06:20:20.311Z,1.60
2018-08-18T06:22:47.350Z,1.00
2018-08-18T06:25:15.409Z,1.05
2018-08-18T06:27:42.429Z,1.25
2018-08-18T06:30:09.445Z,1.15
2018-08-18T06:32:36.548Z,1.12
2018-08-18T06:35:03.861Z,1.07
2018-08-18T06:37:30.869Z,1.25
2018-08-18T06:39:59.285Z,1.60
2018-08-18T06:42:57.567Z,1.22
2018-08-18T06:45:27.538Z,1.32
2018-08-18T06:48:30.013Z,1.62
2018-08-18T06:50:58.349Z,0.90
2018-08-18T06:53:25.412Z,1.57
2018-08-18T06:55:52.489Z,1.65
2018-08-18T06:58:19.536Z,1.65
2018-08-18T07:00:46.542Z,1.60
2018-08-18T07:03:19.483Z,2.27
2018-08-18T07:05:46.637Z,1.00
2018-08-18T07:08:14.712Z,1.40
2018-08-18T07:10:41.882Z,1.50
2018-08-18T07:13:10.206Z,1.85
2018-08-18T07:15:41.435Z,1.77
2018-08-18T07:18:09.138Z,1.37
2018-08-18T07:20:36.193Z,1.45
2018-08-18T07:23:03.256Z,1.25
2018-08-18T07:25:30.374Z,1.37
2018-08-18T07:28:09.358Z,1.10
2018-08-18T07:30:37.244Z,1.10
2018-08-18T07:33:04.346Z,2.40
2018-08-18T07:35:31.872Z,1.05
2018-08-18T07:37:58.977Z,2.00
2018-08-18T07:40:59.483Z,1.67
2018-08-18T07:43:34.231Z,1.30
2018-08-18T07:46:02.825Z,1.05
2018-08-18T07:48:30.503Z,1.37
2018-08-18T07:50:57.528Z,2.10
2018-08-18T07:53:24.825Z,2.00
2018-08-18T07:55:52.343Z,1.52
2018-08-18T07:58:20.725Z,1.50
2018-08-18T08:00:47.946Z,1.22
2018-08-18T08:03:15.984Z,1.35
2018-08-18T08:05:43.238Z,1.62
2018-08-18T08:08:10.498Z,1.67
2018-08-18T08:10:37.531Z,2.08
2018-08-18T08:13:04.558Z,2.60
2018-08-18T08:15:31.728Z,2.25
2018-08-18T08:17:58.772Z,1.57
2018-08-18T08:20:25.845Z,1.87
2018-08-18T08:22:53.536Z,2.45
2018-08-18T08:25:20.577Z,1.80
2018-08-18T08:27:48.542Z,2.00
2018-08-18T08:30:16.210Z,2.52
2018-08-18T08:32:43.450Z,1.70
2018-08-18T08:35:10.597Z,2.37
2018-08-18T08:37:37.626Z,1.90
2018-08-18T08:40:06.383Z,1.52
2018-08-18T08:42:33.410Z,1.55
2018-08-18T08:45:00.530Z,1.75
2018-08-18T08:47:27.559Z,2.00
2018-08-18T08:49:54.595Z,1.57
2018-08-18T08:52:21.642Z,2.17
2018-08-18T08:54:48.742Z,2.52
2018-08-18T08:57:15.777Z,2.85
2018-08-18T08:59:42.827Z,1.50
2018-08-18T09:02:11.417Z,1.92
2018-08-18T09:04:38.573Z,1.90
2018-08-18T09:07:08.460Z,3.37
2018-08-18T09:09:35.506Z,1.92
2018-08-18T09:12:02.538Z,2.35
2018-08-18T09:14:30.650Z,2.45
2018-08-18T09:16:57.674Z,2.25
2018-08-18T09:19:24.714Z,2.60
2018-08-18T09:21:53.390Z,2.12
2018-08-18T09:24:22.500Z,3.02
2018-08-18T09:26:54.885Z,3.00
2018-08-18T09:29:22.302Z,2.17
2018-08-18T09:31:49.467Z,2.22
2018-08-18T09:34:16.585Z,2.45
2018-08-18T09:36:44.372Z,1.98
2018-08-18T09:39:17.075Z,2.12
2018-08-18T09:41:44.092Z,2.40
2018-08-18T09:44:16.273Z,2.55
2018-08-18T09:46:43.610Z,2.20
2018-08-18T09:49:10.971Z,2.70
2018-08-18T09:51:38.349Z,2.37
2018-08-18T09:54:05.647Z,2.10
2018-08-18T09:56:32.755Z,2.27
2018-08-18T09:59:06.294Z,1.85
2018-08-18T10:01:33.289Z,2.37
2018-08-18T10:04:00.411Z,2.30
2018-08-18T10:06:27.482Z,2.20
2018-08-18T10:08:54.446Z,2.12
2018-08-18T10:11:21.465Z,3.02
2018-08-18T10:13:48.523Z,2.70
2018-08-18T10:16:15.596Z,2.45
2018-08-18T10:18:47.240Z,3.42
2018-08-18T10:21:14.412Z,5.40
2018-08-18T10:23:41.478Z,4.72
2018-08-18T10:26:08.536Z,6.45
2018-08-18T10:28:35.564Z,4.78
2018-08-18T10:31:02.578Z,5.20
2018-08-18T10:33:29.620Z,4.58
2018-08-18T10:35:56.752Z,4.75
2018-08-18T10:38:23.804Z,6.47
2018-08-18T10:40:50.828Z,4.60
2018-08-18T10:43:17.872Z,4.15
2018-08-18T10:45:44.978Z,4.72
2018-08-18T10:48:12.053Z,4.97
2018-08-18T10:50:56.787Z,4.85
2018-08-18T10:53:23.810Z,5.10
2018-08-18T10:55:50.953Z,3.75
2018-08-18T10:58:24.102Z,3.75
2018-08-18T11:00:51.143Z,3.10
2018-08-18T11:03:19.748Z,4.10
2018-08-18T11:05:46.892Z,3.67
2018-08-18T11:08:14.376Z,3.30
2018-08-18T11:10:42.142Z,4.60
2018-08-18T11:13:09.158Z,5.55
2018-08-18T11:15:36.327Z,4.45
2018-08-18T11:18:03.378Z,4.37
2018-08-18T11:20:31.802Z,5.42
2018-08-18T11:23:04.284Z,6.75
2018-08-18T11:25:35.948Z,3.90
2018-08-18T11:28:03.952Z,6.62
2018-08-18T11:30:31.551Z,4.20
2018-08-18T11:33:00.750Z,4.00
2018-08-18T11:35:28.162Z,4.58
2018-08-18T11:37:58.539Z,4.37
2018-08-18T11:40:26.926Z,3.27
2018-08-18T11:42:55.825Z,4.80
2018-08-18T11:45:24.918Z,4.87
2018-08-18T11:47:57.757Z,4.75
2018-08-18T11:50:26.304Z,4.85
2018-08-18T11:52:55.276Z,4.85
2018-08-18T11:55:22.530Z,4.62
2018-08-18T11:57:49.598Z,6.55
2018-08-18T12:00:17.382Z,4.92
2018-08-18T12:02:45.775Z,5.80
2018-08-18T12:05:12.846Z,3.83
2018-08-18T12:07:39.965Z,4.05
2018-08-18T12:10:06.990Z,6.87
2018-08-18T12:12:34.018Z,5.40
2018-08-18T12:15:01.259Z,3.95
2018-08-18T12:17:28.390Z,4.53
2018-08-18T12:20:00.078Z,6.03
2018-08-18T12:22:27.103Z,5.92
2018-08-18T12:24:58.234Z,4.50
2018-08-18T12:27:25.292Z,5.55
2018-08-18T12:29:52.405Z,4.47
2018-08-18T12:32:24.808Z,4.67
2018-08-18T12:34:53.690Z,5.05
2018-08-18T12:37:24.761Z,4.28
2018-08-18T12:39:51.761Z,6.35
2018-08-18T12:42:23.615Z,4.80
2018-08-18T12:44:50.724Z,4.90
2018-08-18T12:47:17.756Z,5.55
2018-08-18T12:49:44.819Z,5.45
2018-08-18T12:52:11.831Z,5.67
2018-08-18T12:54:38.955Z,4.40
2018-08-18T12:57:05.986Z,4.22
2018-08-18T12:59:33.024Z,5.05
2018-08-18T13:02:00.053Z,5.25
2018-08-18T13:04:27.196Z,3.15
2018-08-18T13:06:55.064Z,3.75
2018-08-18T13:09:23.385Z,3.25
2018-08-18T13:11:51.691Z,4.90
2018-08-18T13:14:19.566Z,3.67
2018-08-18T13:16:46.604Z,3.50
2018-08-18T13:19:14.062Z,3.17
2018-08-18T13:21:41.074Z,4.37
2018-08-18T13:24:08.162Z,4.05
2018-08-18T13:26:35.777Z,5.12
2018-08-18T13:29:02.848Z,4.50
2018-08-18T13:31:35.450Z,4.22
2018-08-18T13:34:02.584Z,5.15
2018-08-18T13:36:29.621Z,4.20
2018-08-18T13:38:56.681Z,4.30
2018-08-18T13:41:23.702Z,4.05
2018-08-18T13:43:50.813Z,5.47
2018-08-18T13:46:18.880Z,4.72
2018-08-18T13:48:51.685Z,3.62
2018-08-18T13:51:18.998Z,4.15
2018-08-18T13:53:54.667Z,2.92
2018-08-18T13:56:24.482Z,4.35
2018-08-18T13:58:52.517Z,4.00
2018-08-18T14:01:25.198Z,3.52
2018-08-18T14:03:52.316Z,2.80
2018-08-18T14:06:19.347Z,3.10
2018-08-18T14:08:50.789Z,2.70
2018-08-18T14:11:17.830Z,3.12
2018-08-18T14:13:44.876Z,3.17
2018-08-18T14:16:11.918Z,3.95
2018-08-18T14:18:38.942Z,3.35
2018-08-18T14:21:07.556Z,3.10
2018-08-18T14:23:34.618Z,3.50
2018-08-18T14:26:01.669Z,3.37
2018-08-18T14:28:28.908Z,3.00
2018-08-18T14:30:55.957Z,3.22
2018-08-18T14:33:23.084Z,1.95
2018-08-18T14:35:51.248Z,3.80
2018-08-18T14:38:18.364Z,3.67
2018-08-18T14:40:45.582Z,3.92
2018-08-18T14:43:12.692Z,3.47
2018-08-18T14:45:39.870Z,3.08
2018-08-18T14:48:07.008Z,4.08
2018-08-18T14:50:34.053Z,3.33
2018-08-18T14:53:04.189Z,3.30
2018-08-18T14:55:31.310Z,3.40
2018-08-18T14:58:01.376Z,3.52
2018-08-18T15:00:28.610Z,4.58
2018-08-18T15:02:55.750Z,3.83
2018-08-18T15:05:22.929Z,3.55
2018-08-18T15:07:51.222Z,4.33
2018-08-18T15:10:41.338Z,3.20
2018-08-18T15:13:09.219Z,3.40
2018-08-18T15:15:36.678Z,2.98
2018-08-18T15:18:04.986Z,3.58
2018-08-18T15:20:35.143Z,4.45
2018-08-18T15:23:03.628Z,3.75
2018-08-18T15:25:31.819Z,3.80
2018-08-18T15:28:01.766Z,4.30
2018-08-18T15:30:28.948Z,3.17
2018-08-18T15:32:56.957Z,4.45
2018-08-18T15:35:25.273Z,4.10
2018-08-18T15:37:52.278Z,3.17
2018-08-18T15:40:19.317Z,4.28
2018-08-18T15:42:46.357Z,5.08
2018-08-18T15:45:13.458Z,5.30
2018-08-18T15:47:41.262Z,3.22
2018-08-18T15:50:08.300Z,3.47
2018-08-18T15:52:35.548Z,3.12
2018-08-18T15:55:03.822Z,3.83
2018-08-18T15:57:30.937Z,3.65
2018-08-18T15:59:57.998Z,2.83
2018-08-18T16:02:25.060Z,3.35
2018-08-18T16:04:52.305Z,4.10
2018-08-18T16:07:19.362Z,4.20
2018-08-18T16:09:46.396Z,4.53
2018-08-18T16:12:13.418Z,3.30
2018-08-18T16:14:40.594Z,4.08
2018-08-18T16:17:07.580Z,3.60
2018-08-18T16:19:35.576Z,4.37
2018-08-18T16:22:03.188Z,7.85
2018-08-18T16:24:31.914Z,4.58
2018-08-18T16:26:59.632Z,5.00
2018-08-18T16:29:26.667Z,4.30
2018-08-18T16:32:02.550Z,4.40
2018-08-18T16:34:30.398Z,5.75
2018-08-18T16:36:57.448Z,3.83
2018-08-18T16:39:24.529Z,4.80
2018-08-18T16:41:51.575Z,4.95
2018-08-18T16:44:18.711Z,5.62
2018-08-18T16:46:45.789Z,5.25
2018-08-18T16:49:13.811Z,4.22
2018-08-18T16:51:40.857Z,4.17
2018-08-18T16:54:19.194Z,6.80
2018-08-18T16:56:46.208Z,4.65
2018-08-18T16:59:13.268Z,5.30
2018-08-18T17:01:40.589Z,4.55
2018-08-18T17:04:07.669Z,5.72
2018-08-18T17:06:34.691Z,3.77
2018-08-18T17:09:01.737Z,3.75
2018-08-18T17:11:28.820Z,4.78
2018-08-18T17:13:56.176Z,5.25
2018-08-18T17:16:23.225Z,3.80
2018-08-18T17:18:50.748Z,4.67
2018-08-18T17:21:17.761Z,3.83
2018-08-18T17:23:44.884Z,3.20
2018-08-18T17:26:11.846Z,3.27
2018-08-18T17:28:38.866Z,2.70
2018-08-18T17:31:06.187Z,2.83
2018-08-18T17:33:33.532Z,3.72
2018-08-18T17:36:00.592Z,2.20
2018-08-18T17:38:27.629Z,2.12
2018-08-18T17:40:54.659Z,3.10
2018-08-18T17:43:21.762Z,2.58
2018-08-18T17:45:54.284Z,3.25
2018-08-18T17:48:21.406Z,2.67
2018-08-18T17:50:48.864Z,2.47
2018-08-18T17:53:15.885Z,3.15
2018-08-18T17:55:44.938Z,2.80
2018-08-18T17:58:11.954Z,1.75
2018-08-18T18:00:39.112Z,2.42
2018-08-18T18:03:06.760Z,2.45
2018-08-18T18:05:34.567Z,2.75
2018-08-18T18:08:03.760Z,2.33
2018-08-18T18:10:31.441Z,2.95
2018-08-18T18:12:58.463Z,2.77
2018-08-18T18:15:28.543Z,2.00
2018-08-18T18:17:55.645Z,5.65
2018-08-18T18:20:22.642Z,2.90
2018-08-18T18:22:49.918Z,2.95
2018-08-18T18:25:18.249Z,2.47
2018-08-18T18:27:45.295Z,2.33
2018-08-18T18:30:12.319Z,2.55
2018-08-18T18:32:39.372Z,1.82
2018-08-18T18:35:06.491Z,2.60
2018-08-18T18:37:33.513Z,2.30
2018-08-18T18:40:02.721Z,1.50
2018-08-18T18:42:29.768Z,1.98
2018-08-18T18:44:57.533Z,2.25
2018-08-18T18:47:24.572Z,1.95
2018-08-18T18:49:51.804Z,1.52
2018-08-18T18:52:18.909Z,1.52
2018-08-18T18:54:46.070Z,1.47
2018-08-18T18:57:13.098Z,2.25
2018-08-18T18:59:47.547Z,1.50
2018-08-18T19:02:14.587Z,1.10
2018-08-18T19:04:41.674Z,1.50
2018-08-18T19:07:08.704Z,1.52
2018-08-18T19:09:36.398Z,2.35
2018-08-18T19:12:03.524Z,1.30
2018-08-18T19:14:30.588Z,1.75
2018-08-18T19:16:57.606Z,1.60
2018-08-18T19:19:24.670Z,2.37
2018-08-18T19:21:51.822Z,1.95
2018-08-18T19:24:25.947Z,2.27
2018-08-18T19:26:54.711Z,1.62
2018-08-18T19:29:23.432Z,2.15
2018-08-18T19:31:54.668Z,1.60
2018-08-18T19:34:21.841Z,1.90
2018-08-18T19:36:55.085Z,1.57
2018-08-18T19:39:23.897Z,1.77
2018-08-18T19:41:50.967Z,1.40
2018-08-18T19:44:18.063Z,1.92
2018-08-18T19:46:45.440Z,2.00
2018-08-18T19:49:14.136Z,1.72
2018-08-18T19:51:41.315Z,1.35
2018-08-18T19:54:08.483Z,1.60
2018-08-18T19:56:36.244Z,1.25
2018-08-18T19:59:03.314Z,1.65
2018-08-18T20:01:30.367Z,2.10
2018-08-18T20:04:02.036Z,1.50
2018-08-18T20:06:29.089Z,1.62
2018-08-18T20:08:56.128Z,2.10
2018-08-18T20:11:23.148Z,1.17
2018-08-18T20:13:50.172Z,2.62
2018-08-18T20:16:17.237Z,2.30
2018-08-18T20:18:44.310Z,2.30
2018-08-18T20:21:11.325Z,3.12
2018-08-18T20:23:39.009Z,3.42
2018-08-18T20:26:06.160Z,2.83
2018-08-18T20:28:33.202Z,3.77
2018-08-18T20:31:00.237Z,2.60
2018-08-18T20:33:27.303Z,2.72
2018-08-18T20:35:54.326Z,2.62
2018-08-18T20:38:21.368Z,2.35
2018-08-18T20:40:48.412Z,3.47
2018-08-18T20:43:15.479Z,3.58
2018-08-18T20:45:47.126Z,3.98
2018-08-18T20:48:15.801Z,2.45
2018-08-18T20:50:42.895Z,2.20
2018-08-18T20:53:12.268Z,1.70
2018-08-18T20:55:39.507Z,3.60
2018-08-18T20:58:06.562Z,3.40
2018-08-18T21:00:33.591Z,2.47
2018-08-18T21:03:00.646Z,2.62
2018-08-18T21:05:27.726Z,3.25
2018-08-18T21:07:54.792Z,2.33
2018-08-18T21:10:21.925Z,3.98
2018-08-18T21:12:49.078Z,2.72
2018-08-18T21:15:17.989Z,3.85
2018-08-18T21:17:45.164Z,3.17
